createdAt,value
2019-02-24T00:00:01.796Z,58.57
2019-02-24T00:05:05.826Z,48.40
2019-02-24T00:10:11.294Z,50.97
2019-02-24T00:15:15.407Z,59.70
2019-02-24T00:20:19.482Z,57.43
2019-02-24T00:25:23.609Z,48.43
2019-02-24T00:30:27.798Z,52.50
2019-02-24T00:35:31.973Z,48.00
2019-02-24T00:40:35.893Z,49.47
2019-02-24T00:45:39.872Z,46.73
2019-02-24T00:50:43.880Z,42.97
2019-02-24T00:55:47.951Z,42.80
2019-02-24T01:00:51.875Z,46.53
2019-02-24T01:05:55.869Z,43.77
2019-02-24T01:10:59.798Z,51.83
2019-02-24T01:16:03.814Z,48.60
2019-02-24T01:21:07.982Z,49.67
2019-02-24T01:26:11.987Z,61.53
2019-02-24T01:31:17.446Z,52.73
2019-02-24T01:36:21.527Z,58.00
2019-02-24T01:41:25.699Z,90.43
2019-02-24T01:46:29.775Z,76.97
2019-02-24T01:51:33.999Z,88.20
2019-02-24T01:56:38.117Z,100.90
2019-02-24T02:01:42.255Z,123.00
2019-02-24T02:06:46.276Z,76.63
2019-02-24T02:11:50.301Z,89.90
2019-02-24T02:16:54.243Z,89.07
2019-02-24T02:21:58.368Z,131.07
2019-02-24T02:27:02.488Z,140.03
2019-02-24T02:32:06.784Z,168.30
2019-02-24T02:37:10.845Z,149.57
2019-02-24T02:42:14.879Z,132.03
2019-02-24T02:47:18.900Z,138.40
2019-02-24T02:52:23.017Z,146.93
2019-02-24T02:57:27.044Z,178.10
2019-02-24T03:02:31.084Z,193.27
2019-02-24T03:07:35.137Z,165.33
2019-02-24T03:12:39.241Z,148.83
2019-02-24T03:17:43.364Z,167.80
2019-02-24T03:22:47.280Z,194.63
2019-02-24T03:27:51.458Z,203.37
2019-02-24T03:32:55.696Z,198.33
2019-02-24T03:37:59.874Z,163.13
2019-02-24T03:43:03.803Z,173.93
2019-02-24T03:48:08.024Z,175.23
2019-02-24T03:53:12.054Z,125.67
2019-02-24T03:58:16.086Z,120.37
2019-02-24T04:03:20.299Z,136.23
2019-02-24T04:08:24.330Z,150.47
2019-02-24T04:13:28.464Z,165.30
2019-02-24T04:18:32.484Z,195.63
2019-02-24T04:23:38.353Z,181.50
2019-02-24T04:28:42.368Z,183.40
2019-02-24T04:33:46.714Z,235.77
2019-02-24T04:38:50.776Z,188.03
2019-02-24T04:43:54.969Z,177.37
2019-02-24T04:48:58.886Z,128.30
2019-02-24T04:54:02.882Z,115.67
2019-02-24T04:59:08.684Z,132.40
2019-02-24T05:04:13.015Z,157.07
2019-02-24T05:09:17.219Z,155.93
2019-02-24T05:14:21.275Z,122.57
2019-02-24T05:19:25.261Z,132.70
2019-02-24T05:24:29.371Z,179.93
2019-02-24T05:29:33.298Z,196.87
2019-02-24T05:34:37.884Z,168.17
2019-02-24T05:39:42.003Z,185.30
2019-02-24T05:44:46.181Z,180.57
2019-02-24T05:49:50.263Z,199.90
2019-02-24T05:54:54.160Z,194.47
2019-02-24T05:59:58.103Z,197.03
2019-02-24T06:05:02.141Z,210.30
2019-02-24T06:10:06.539Z,195.47
2019-02-24T06:15:10.806Z,206.23
2019-02-24T06:20:14.719Z,205.43
2019-02-24T06:25:18.746Z,201.90
2019-02-24T06:30:22.744Z,161.40
2019-02-24T06:35:27.008Z,192.80
2019-02-24T06:40:31.029Z,192.40
2019-02-24T06:45:35.367Z,203.40
2019-02-24T06:50:39.384Z,179.07
2019-02-24T06:55:43.509Z,185.83
2019-02-24T07:00:47.534Z,183.10
2019-02-24T07:05:51.665Z,181.60
2019-02-24T07:10:55.894Z,176.17
2019-02-24T07:15:59.984Z,182.03
2019-02-24T07:21:03.989Z,176.17
2019-02-24T07:26:08.177Z,175.03
2019-02-24T07:31:12.575Z,186.20
2019-02-24T07:36:16.749Z,154.23
2019-02-24T07:41:20.764Z,186.10
2019-02-24T07:46:24.761Z,172.30
2019-02-24T07:51:28.688Z,187.67
2019-02-24T07:56:32.781Z,171.33
2019-02-24T08:01:36.773Z,140.13
2019-02-24T08:06:40.964Z,137.90
2019-02-24T08:11:45.084Z,139.47
2019-02-24T08:16:49.309Z,168.93
2019-02-24T08:21:53.484Z,140.93
2019-02-24T08:26:57.608Z,145.10
2019-02-24T08:32:01.874Z,181.73
2019-02-24T08:37:06.218Z,167.43
2019-02-24T08:42:10.459Z,129.73
2019-02-24T08:47:14.539Z,138.00
2019-02-24T08:52:18.559Z,141.87
2019-02-24T08:57:22.594Z,114.43
2019-02-24T09:02:29.697Z,122.60
2019-02-24T09:07:33.810Z,113.90
2019-02-24T09:12:37.836Z,99.73
2019-02-24T09:17:41.978Z,103.97
2019-02-24T09:22:46.041Z,89.43
2019-02-24T09:27:50.234Z,76.63
2019-02-24T09:32:54.343Z,67.00
2019-02-24T09:37:58.472Z,62.47
2019-02-24T09:43:02.442Z,58.10
2019-02-24T09:48:06.623Z,52.60
2019-02-24T09:53:12.186Z,46.07
2019-02-24T09:58:16.204Z,48.47
2019-02-24T10:03:20.353Z,45.27
2019-02-24T10:08:24.604Z,42.83
2019-02-24T10:13:28.695Z,37.90
2019-02-24T10:18:32.881Z,38.33
2019-02-24T10:23:39.450Z,56.47
2019-02-24T10:28:44.669Z,39.17
2019-02-24T10:33:48.852Z,36.70
2019-02-24T10:38:53.058Z,39.30
2019-02-24T10:43:57.217Z,38.77
2019-02-24T10:49:03.660Z,35.50
2019-02-24T10:54:07.248Z,35.10
2019-02-24T10:59:11.374Z,31.47
2019-02-24T11:04:15.469Z,33.30
2019-02-24T11:09:19.685Z,32.60
2019-02-24T11:14:23.910Z,33.77
2019-02-24T11:19:28.062Z,31.80
2019-02-24T11:24:32.147Z,34.13
2019-02-24T11:29:36.140Z,37.70
2019-02-24T11:34:40.177Z,34.37
2019-02-24T11:39:44.670Z,36.90
2019-02-24T11:44:48.837Z,40.23
2019-02-24T11:49:52.718Z,36.80
2019-02-24T11:54:56.722Z,36.70
2019-02-24T12:00:00.807Z,38.63
2019-02-24T12:05:05.265Z,37.73
2019-02-24T12:10:09.504Z,39.53
2019-02-24T12:15:13.497Z,38.13
2019-02-24T12:20:17.529Z,36.87
2019-02-24T12:25:21.663Z,40.23
2019-02-24T12:30:26.955Z,40.00
2019-02-24T12:35:31.243Z,40.67
2019-02-24T12:40:35.373Z,39.37
2019-02-24T12:45:39.389Z,39.33
2019-02-24T12:50:43.428Z,40.47
2019-02-24T12:55:47.465Z,40.97
2019-02-24T13:00:51.453Z,40.70
2019-02-24T13:05:55.388Z,42.43
2019-02-24T13:10:59.310Z,40.27
2019-02-24T13:16:03.721Z,39.17
2019-02-24T13:21:08.682Z,40.60
2019-02-24T13:26:12.718Z,40.10
2019-02-24T13:31:16.902Z,39.50
2019-02-24T13:36:21.237Z,38.53
2019-02-24T13:41:25.520Z,43.10
2019-02-24T13:46:29.647Z,40.77
2019-02-24T13:51:33.559Z,40.23
2019-02-24T13:56:37.853Z,37.50
2019-02-24T14:01:42.092Z,39.30
2019-02-24T14:06:46.214Z,39.13
2019-02-24T14:11:50.439Z,39.73
2019-02-24T14:16:54.453Z,38.33
2019-02-24T14:21:58.637Z,40.30
2019-02-24T14:27:02.768Z,39.13
2019-02-24T14:32:06.899Z,40.10
2019-02-24T14:37:11.125Z,38.57
2019-02-24T14:42:15.152Z,38.13
2019-02-24T14:47:19.222Z,37.73
2019-02-24T14:52:23.561Z,35.47
2019-02-24T14:57:27.786Z,38.50
2019-02-24T15:02:31.967Z,39.30
2019-02-24T15:07:35.993Z,39.00
2019-02-24T15:12:40.043Z,38.40
2019-02-24T15:17:44.302Z,36.57
2019-02-24T15:22:48.758Z,40.53
2019-02-24T15:27:52.881Z,39.27
2019-02-24T15:32:58.583Z,37.93
2019-02-24T15:38:05.465Z,37.07
2019-02-24T15:43:09.494Z,36.47
2019-02-24T15:48:14.913Z,38.20
2019-02-24T15:53:19.245Z,39.43
2019-02-24T15:58:23.317Z,40.13
2019-02-24T16:03:27.399Z,38.17
2019-02-24T16:08:31.573Z,37.70
2019-02-24T16:13:35.903Z,36.63
2019-02-24T16:18:39.982Z,38.53
2019-02-24T16:23:44.258Z,36.97
2019-02-24T16:28:50.796Z,39.63
2019-02-24T16:33:55.038Z,37.87
2019-02-24T16:38:59.110Z,38.07
2019-02-24T16:44:03.067Z,36.13
2019-02-24T16:49:07.044Z,40.00
2019-02-24T16:54:11.074Z,36.03
2019-02-24T16:59:15.174Z,36.10
2019-02-24T17:04:19.384Z,38.20
2019-02-24T17:09:23.513Z,40.70
2019-02-24T17:14:27.695Z,36.93
2019-02-24T17:19:31.775Z,38.40
2019-02-24T17:24:35.994Z,44.20
2019-02-24T17:29:40.080Z,131.77
2019-02-24T17:34:44.030Z,127.37
2019-02-24T17:39:48.227Z,85.43
2019-02-24T17:44:52.530Z,39.20
2019-02-24T17:49:56.689Z,40.57
2019-02-24T17:55:00.694Z,38.67
2019-02-24T18:00:07.807Z,46.70
2019-02-24T18:05:11.878Z,43.80
2019-02-24T18:10:16.147Z,40.70
2019-02-24T18:15:20.359Z,43.03
2019-02-24T18:20:24.659Z,42.80
2019-02-24T18:25:28.805Z,49.83
2019-02-24T18:30:32.967Z,43.33
2019-02-24T18:35:37.083Z,47.30
2019-02-24T18:40:41.130Z,45.30
2019-02-24T18:45:45.360Z,49.30
2019-02-24T18:50:49.391Z,53.97
2019-02-24T18:55:53.458Z,52.73
2019-02-24T19:00:57.539Z,51.60
2019-02-24T19:06:02.955Z,51.77
2019-02-24T19:11:07.047Z,54.97
2019-02-24T19:16:13.530Z,55.80
2019-02-24T19:21:17.615Z,56.27
2019-02-24T19:26:21.966Z,53.60
2019-02-24T19:31:28.739Z,62.17
2019-02-24T19:36:32.996Z,59.83
2019-02-24T19:41:36.966Z,60.57
2019-02-24T19:46:42.282Z,58.97
2019-02-24T19:51:46.551Z,55.60
2019-02-24T19:56:50.836Z,56.63
2019-02-24T20:01:54.956Z,61.43
2019-02-24T20:06:58.957Z,60.53
2019-02-24T20:12:04.601Z,65.87
2019-02-24T20:17:08.726Z,59.03
2019-02-24T20:22:12.910Z,64.63
2019-02-24T20:27:17.233Z,69.87
2019-02-24T20:32:21.684Z,79.43
2019-02-24T20:37:27.639Z,74.80
2019-02-24T20:42:31.822Z,65.97
2019-02-24T20:47:36.158Z,63.10
2019-02-24T20:52:40.241Z,62.67
2019-02-24T20:57:44.417Z,61.73
2019-02-24T21:02:48.701Z,63.93
2019-02-24T21:07:52.721Z,58.27
2019-02-24T21:12:56.741Z,76.67
2019-02-24T21:18:00.770Z,77.53
2019-02-24T21:23:04.928Z,62.50
2019-02-24T21:28:09.219Z,71.63
2019-02-24T21:33:13.261Z,61.17
2019-02-24T21:38:17.400Z,63.50
2019-02-24T21:43:21.631Z,68.53
2019-02-24T21:48:25.963Z,71.03
2019-02-24T21:53:29.971Z,82.87
2019-02-24T21:58:33.917Z,69.70
2019-02-24T22:03:37.922Z,64.77
2019-02-24T22:08:42.940Z,61.00
2019-02-24T22:13:47.101Z,53.37
2019-02-24T22:18:51.231Z,51.70
2019-02-24T22:23:55.202Z,68.37
2019-02-24T22:28:59.385Z,59.87
2019-02-24T22:34:03.617Z,71.30
2019-02-24T22:39:07.835Z,131.43
2019-02-24T22:44:12.215Z,273.97
2019-02-24T22:49:16.505Z,470.53
2019-02-24T22:54:20.636Z,213.77
2019-02-24T22:59:24.617Z,121.53
2019-02-24T23:04:28.834Z,107.07
2019-02-24T23:09:33.011Z,70.57
2019-02-24T23:14:37.186Z,65.97
2019-02-24T23:19:41.375Z,85.20
2019-02-24T23:24:45.506Z,60.73
2019-02-24T23:29:49.385Z,75.57
2019-02-24T23:34:53.362Z,95.17
2019-02-24T23:39:57.471Z,77.10
2019-02-24T23:45:09.756Z,113.23
2019-02-24T23:50:07.270Z,120.70
2019-02-24T23:55:11.302Z,105.67
